Time;durP1;ratioP1;P1;durP2;ratioP2;P2;SDS_P1;SDS_P2;PMS_P1;PMS_P2;Temp;Humidity;BMP_temperature;BMP_pressure;BME280_temperature;BME280_humidity;BME280_pressure;Samples;Min_cycle;Max_cycle;Signal;HPM_P1;HPM_P2
2021/05/19 00:00:09;;;;;;;0.65;0.10;;;11.50;99.90;;;;;;5030628;28;20518;-78
2021/05/19 00:02:35;;;;;;;0.98;0.25;;;11.70;99.90;;;;;;5028902;28;20040;-78
2021/05/19 00:05:01;;;;;;;0.22;0.10;;;11.50;99.90;;;;;;5026952;28;20025;-78
2021/05/19 00:07:27;;;;;;;1.77;0.30;;;11.30;99.90;;;;;;5031237;28;20097;-78
2021/05/19 00:09:53;;;;;;;1.13;0.30;;;11.50;99.90;;;;;;5029845;28;20075;-78
2021/05/19 00:12:18;;;;;;;0.85;0.25;;;11.60;99.90;;;;;;5029772;28;20033;-78
2021/05/19 00:14:44;;;;;;;2.17;0.20;;;11.40;99.90;;;;;;5019758;28;20041;-78
2021/05/19 00:17:10;;;;;;;2.45;0.17;;;11.20;99.90;;;;;;5028185;28;20037;-78
2021/05/19 00:19:35;;;;;;;1.25;0.20;;;11.20;99.90;;;;;;5026302;28;20030;-78
2021/05/19 00:22:01;;;;;;;0.52;0.10;;;11.40;99.90;;;;;;5019794;28;20458;-78
2021/05/19 00:24:27;;;;;;;0.40;0.00;;;11.20;99.90;;;;;;5025080;28;20026;-78
2021/05/19 00:26:53;;;;;;;2.75;0.40;;;11.40;99.90;;;;;;5028058;28;20030;-78
2021/05/19 00:29:18;;;;;;;0.98;0.20;;;11.40;99.90;;;;;;5027112;28;20021;-78
2021/05/19 00:31:44;;;;;;;1.15;0.20;;;11.40;99.90;;;;;;5028340;28;20033;-78
2021/05/19 00:34:11;;;;;;;0.32;0.10;;;11.40;99.90;;;;;;5025056;28;20033;-79
2021/05/19 00:36:39;;;;;;;0.20;0.10;;;11.40;99.90;;;;;;5026951;28;20384;-78
2021/05/19 00:39:06;;;;;;;1.13;0.35;;;11.30;99.90;;;;;;5025656;28;20053;-77
2021/05/19 00:41:32;;;;;;;1.33;0.35;;;11.30;99.90;;;;;;5030744;28;20029;-78
2021/05/19 00:44:18;;;;;;;0.75;0.20;;;11.10;99.90;;;;;;5028673;28;20030;-78
2021/05/19 00:46:46;;;;;;;1.08;0.28;;;11.20;99.90;;;;;;5020631;28;20030;-78
2021/05/19 00:49:13;;;;;;;2.50;0.10;;;11.30;99.90;;;;;;5027994;28;20030;-78
2021/05/19 00:51:40;;;;;;;0.38;0.05;;;11.30;99.90;;;;;;5024407;28;20034;-78
2021/05/19 00:54:06;;;;;;;1.42;0.20;;;11.30;99.90;;;;;;5027864;28;20030;-78
2021/05/19 00:56:32;;;;;;;0.65;0.17;;;11.20;99.90;;;;;;5026952;28;20036;-78
2021/05/19 00:59:01;;;;;;;0.77;0.20;;;11.10;99.90;;;;;;5028560;28;20034;-78
2021/05/19 01:01:33;;;;;;;0.52;0.28;;;11.10;99.90;;;;;;5027981;28;20053;-78
2021/05/19 01:03:59;;;;;;;0.47;0.20;;;11.10;99.90;;;;;;5024828;28;20072;-78
2021/05/19 01:06:32;;;;;;;1.75;0.20;;;11.10;99.90;;;;;;5023293;28;20061;-78
2021/05/19 01:11:42;;;;;;;0.30;0.10;;;11.10;99.90;;;;;;5028269;28;20052;-78
2021/05/19 01:14:08;;;;;;;1.90;0.20;;;11.00;99.90;;;;;;5021214;28;20050;-77
2021/05/19 01:16:34;;;;;;;1.70;0.20;;;11.00;99.90;;;;;;5026724;28;20025;-77
2021/05/19 01:19:00;;;;;;;0.28;0.17;;;11.00;99.90;;;;;;5026613;28;20125;-78
2021/05/19 01:21:27;;;;;;;1.25;0.30;;;11.00;99.90;;;;;;5029648;28;20092;-77
2021/05/19 01:23:53;;;;;;;0.50;0.20;;;10.90;99.90;;;;;;5030527;28;20029;-77
2021/05/19 01:26:21;;;;;;;0.52;0.20;;;11.00;99.90;;;;;;5032513;28;20113;-77
2021/05/19 01:28:47;;;;;;;1.92;0.28;;;11.00;99.90;;;;;;5032945;28;20045;-77
2021/05/19 01:31:13;;;;;;;0.38;0.10;;;11.00;99.90;;;;;;5030737;28;20530;-77
2021/05/19 01:33:39;;;;;;;0.68;0.20;;;11.00;99.90;;;;;;5032043;28;20022;-77
2021/05/19 01:36:06;;;;;;;1.70;0.15;;;11.00;99.90;;;;;;5028320;28;20029;-77
2021/05/19 01:38:36;;;;;;;0.50;0.20;;;11.00;99.90;;;;;;5031297;28;20041;-77
2021/05/19 01:41:02;;;;;;;0.65;0.20;;;11.10;99.90;;;;;;5028138;28;20021;-76
2021/05/19 01:43:38;;;;;;;0.43;0.20;;;11.00;99.90;;;;;;5032067;28;20104;-77
2021/05/19 01:46:05;;;;;;;0.60;0.20;;;11.00;99.90;;;;;;5031108;28;20041;-77
2021/05/19 01:48:32;;;;;;;0.82;0.28;;;11.00;99.90;;;;;;5031753;28;20442;-77
2021/05/19 01:50:58;;;;;;;1.05;0.25;;;11.10;99.90;;;;;;5031522;28;20061;-77
2021/05/19 01:53:25;;;;;;;1.35;0.20;;;11.10;99.90;;;;;;5020230;28;20056;-77
2021/05/19 01:55:52;;;;;;;0.73;0.20;;;11.10;99.90;;;;;;5030887;28;20029;-77
2021/05/19 01:58:19;;;;;;;0.75;0.20;;;11.10;99.90;;;;;;5028399;28;20048;-76
2021/05/19 02:00:44;;;;;;;0.35;0.13;;;11.10;99.90;;;;;;5030392;28;20037;-77
2021/05/19 02:03:10;;;;;;;3.10;0.32;;;11.20;99.90;;;;;;5031336;28;20037;-77
2021/05/19 02:05:37;;;;;;;0.73;0.13;;;11.20;99.90;;;;;;5029761;28;20037;-77
2021/05/19 02:08:05;;;;;;;0.15;0.10;;;11.10;99.90;;;;;;5028198;28;20084;-77
2021/05/19 02:10:32;;;;;;;0.30;0.20;;;11.10;99.90;;;;;;5032828;28;20044;-77
2021/05/19 02:13:00;;;;;;;0.55;0.30;;;11.20;99.90;;;;;;5030002;28;20056;-77
2021/05/19 02:15:26;;;;;;;1.20;0.20;;;11.10;99.90;;;;;;5030986;28;20037;-77
2021/05/19 02:17:51;;;;;;;1.80;0.10;;;11.10;99.90;;;;;;5031032;28;20415;-77
2021/05/19 02:20:20;;;;;;;1.13;0.20;;;11.00;99.90;;;;;;5030426;28;20025;-77
2021/05/19 02:22:47;;;;;;;0.32;0.30;;;11.00;99.90;;;;;;5029925;28;20108;-77
2021/05/19 02:25:14;;;;;;;0.47;0.15;;;11.00;99.90;;;;;;5029342;28;20030;-76
2021/05/19 02:27:39;;;;;;;0.80;0.25;;;11.00;99.90;;;;;;5030749;28;20021;-76
2021/05/19 02:30:07;;;;;;;2.33;0.30;;;10.90;99.90;;;;;;5027228;28;20052;-76
2021/05/19 02:32:33;;;;;;;2.30;0.55;;;10.60;99.90;;;;;;5030700;28;20030;-76
2021/05/19 02:34:59;;;;;;;2.50;0.50;;;10.30;99.90;;;;;;5029218;28;20033;-77
2021/05/19 02:37:25;;;;;;;0.98;0.10;;;10.20;99.90;;;;;;5029289;28;20048;-77
2021/05/19 02:39:51;;;;;;;1.98;0.63;;;10.00;99.90;;;;;;5032616;28;20034;-76
2021/05/19 02:42:16;;;;;;;6.45;0.70;;;10.00;99.90;;;;;;5029611;28;20029;-76
2021/05/19 02:44:42;;;;;;;0.93;0.20;;;10.50;99.90;;;;;;5031679;28;20503;-77
2021/05/19 02:47:08;;;;;;;0.63;0.22;;;10.70;99.90;;;;;;5026142;28;20025;-77
2021/05/19 02:49:34;;;;;;;1.10;0.30;;;10.80;99.90;;;;;;5032568;28;20045;-76
2021/05/19 02:52:00;;;;;;;0.32;0.10;;;10.80;99.90;;;;;;5030959;28;20036;-76
2021/05/19 02:54:26;;;;;;;0.25;0.10;;;10.90;99.90;;;;;;5026457;28;20386;-77
2021/05/19 02:56:52;;;;;;;1.23;0.28;;;10.80;99.90;;;;;;5031501;28;20036;-77
2021/05/19 02:59:18;;;;;;;2.80;0.25;;;10.60;99.90;;;;;;5029363;28;20029;-76
2021/05/19 03:01:43;;;;;;;0.95;0.30;;;10.50;99.90;;;;;;5018523;28;20026;-77
2021/05/19 03:04:09;;;;;;;0.38;0.25;;;10.40;99.90;;;;;;5020073;28;20037;-76
2021/05/19 03:06:36;;;;;;;1.02;0.30;;;10.10;99.90;;;;;;5021613;28;20029;-77
2021/05/19 03:09:04;;;;;;;0.60;0.20;;;10.00;99.90;;;;;;5021219;28;20096;-77
2021/05/19 03:11:30;;;;;;;1.23;0.30;;;9.90;99.90;;;;;;5023160;28;20044;-77
2021/05/19 03:13:56;;;;;;;0.75;0.40;;;9.90;99.90;;;;;;5023523;28;20446;-77
2021/05/19 03:16:22;;;;;;;2.10;0.40;;;9.80;99.90;;;;;;5024999;28;20030;-77
2021/05/19 03:18:48;;;;;;;1.25;0.35;;;9.60;99.90;;;;;;5021945;28;20038;-77
2021/05/19 03:21:15;;;;;;;2.17;0.30;;;10.10;99.90;;;;;;5022528;28;20033;-77
2021/05/19 03:23:40;;;;;;;1.25;0.40;;;9.90;99.90;;;;;;5008078;28;20026;-77
2021/05/19 03:26:07;;;;;;;0.52;0.30;;;9.80;99.90;;;;;;5023072;28;20040;-77
2021/05/19 03:28:33;;;;;;;1.10;0.50;;;9.90;99.90;;;;;;5019926;28;20029;-77
2021/05/19 03:30:59;;;;;;;1.48;0.32;;;10.10;99.90;;;;;;5022044;28;20033;-75
2021/05/19 03:33:25;;;;;;;1.55;0.30;;;9.90;99.90;;;;;;5020410;28;20029;-77
2021/05/19 03:35:51;;;;;;;1.15;0.30;;;9.70;99.90;;;;;;5010254;28;20045;-76
2021/05/19 03:38:17;;;;;;;0.57;0.30;;;9.60;99.90;;;;;;5022831;28;20486;-77
2021/05/19 03:40:43;;;;;;;0.32;0.15;;;9.80;99.90;;;;;;5017879;28;20033;-76
2021/05/19 03:43:09;;;;;;;2.17;0.38;;;9.80;99.90;;;;;;5018885;28;20029;-77
2021/05/19 03:45:35;;;;;;;0.20;0.20;;;9.80;99.90;;;;;;5020930;28;20132;-77
2021/05/19 03:48:01;;;;;;;1.40;0.50;;;9.80;99.90;;;;;;5020679;28;20379;-77
2021/05/19 03:50:29;;;;;;;0.47;0.20;;;9.90;99.90;;;;;;5021066;28;20072;-77
2021/05/19 03:52:58;;;;;;;0.57;0.30;;;9.70;99.90;;;;;;5019548;28;20154;-77
2021/05/19 03:55:24;;;;;;;0.30;0.20;;;9.70;99.90;;;;;;5018611;28;20148;-77
2021/05/19 03:57:50;;;;;;;0.85;0.30;;;9.60;99.90;;;;;;5023507;28;20091;-77
2021/05/19 04:00:22;;;;;;;2.95;0.63;;;9.70;99.90;;;;;;5022655;28;20419;-76
2021/05/19 04:02:50;;;;;;;2.33;0.50;;;9.60;99.90;;;;;;5021171;28;20163;-77
2021/05/19 04:05:18;;;;;;;0.93;0.30;;;9.60;99.90;;;;;;5018979;28;20037;-76
2021/05/19 04:07:44;;;;;;;3.05;0.40;;;9.50;99.90;;;;;;5020828;28;20037;-77
2021/05/19 04:10:10;;;;;;;0.25;0.20;;;9.70;99.90;;;;;;5016047;28;20476;-76
2021/05/19 04:12:37;;;;;;;0.38;0.28;;;9.70;99.90;;;;;;5020177;28;20041;-77
2021/05/19 04:15:04;;;;;;;0.63;0.30;;;9.80;99.90;;;;;;5017535;28;20166;-76
2021/05/19 04:17:30;;;;;;;2.03;0.52;;;9.90;99.90;;;;;;5021188;28;20052;-76
2021/05/19 04:19:55;;;;;;;1.70;0.30;;;9.90;99.90;;;;;;5020696;28;20033;-77
2021/05/19 04:22:21;;;;;;;1.55;0.60;;;9.90;99.90;;;;;;5019532;28;20025;-76
2021/05/19 04:24:47;;;;;;;1.27;0.17;;;9.60;99.90;;;;;;5022601;28;20030;-77
2021/05/19 04:27:12;;;;;;;1.05;0.32;;;9.80;99.90;;;;;;5021005;28;20384;-76
2021/05/19 04:29:38;;;;;;;0.88;0.30;;;9.80;99.90;;;;;;5020567;28;20029;-77
2021/05/19 04:32:04;;;;;;;1.13;0.40;;;9.70;99.90;;;;;;5018912;28;20484;-77
2021/05/19 04:34:30;;;;;;;1.27;0.32;;;9.50;99.90;;;;;;5021388;28;20034;-77
2021/05/19 04:36:56;;;;;;;0.82;0.30;;;9.60;99.90;;;;;;5019859;28;20045;-77
2021/05/19 04:39:21;;;;;;;1.35;0.32;;;9.80;99.90;;;;;;5022219;28;20033;-77
2021/05/19 04:41:47;;;;;;;1.38;0.30;;;9.90;99.90;;;;;;5022506;28;20071;-77
2021/05/19 04:44:13;;;;;;;0.90;0.50;;;9.90;99.90;;;;;;5020158;28;20034;-77
2021/05/19 04:46:39;;;;;;;3.38;0.75;;;10.00;99.90;;;;;;5019889;28;20178;-77
2021/05/19 04:49:05;;;;;;;1.20;0.65;;;10.10;99.90;;;;;;5019580;28;20435;-76
2021/05/19 04:51:30;;;;;;;1.27;0.50;;;10.10;99.90;;;;;;5021458;28;20148;-77
2021/05/19 04:53:56;;;;;;;1.15;0.40;;;10.10;99.90;;;;;;5020212;28;20072;-76
2021/05/19 04:56:23;;;;;;;2.83;0.40;;;10.10;99.90;;;;;;5023512;28;20379;-77
2021/05/19 04:58:49;;;;;;;4.10;0.40;;;10.10;99.90;;;;;;5024854;28;20037;-77
2021/05/19 05:01:14;;;;;;;1.27;0.52;;;10.30;99.90;;;;;;5024056;28;20026;-77
2021/05/19 05:03:40;;;;;;;2.75;0.40;;;10.40;99.90;;;;;;5022357;28;20500;-77
2021/05/19 05:06:06;;;;;;;1.30;0.40;;;10.50;99.90;;;;;;5021498;28;20061;-76
2021/05/19 05:08:31;;;;;;;2.03;0.20;;;10.50;99.90;;;;;;5023480;28;20376;-77
2021/05/19 05:10:57;;;;;;;0.93;0.30;;;10.40;99.90;;;;;;5027209;28;20109;-77
2021/05/19 05:13:23;;;;;;;0.88;0.30;;;10.50;99.90;;;;;;5025501;28;20049;-77
2021/05/19 05:16:02;;;;;;;1.15;0.30;;;10.50;99.90;;;;;;5019779;28;20068;-77
2021/05/19 05:18:37;;;;;;;0.63;0.20;;;10.40;99.90;;;;;;5021373;28;20488;-77
2021/05/19 05:21:05;;;;;;;;;;;10.70;99.90;;;;;;5015880;28;20463;-78
2021/05/19 05:23:31;;;;;;;0.85;0.35;;;10.90;99.90;;;;;;5017215;28;20094;-77
2021/05/19 05:25:58;;;;;;;0.57;0.38;;;11.20;99.90;;;;;;5025951;28;20036;-77
2021/05/19 05:28:24;;;;;;;0.88;0.40;;;11.10;99.90;;;;;;5027978;28;20030;-79
2021/05/19 05:30:49;;;;;;;0.85;0.40;;;11.00;99.90;;;;;;5034502;28;20487;-75
2021/05/19 05:33:15;;;;;;;2.53;0.32;;;10.90;99.90;;;;;;5026763;28;20371;-75
2021/05/19 05:35:41;;;;;;;1.65;0.30;;;10.90;99.90;;;;;;5025108;28;20029;-76
2021/05/19 05:38:07;;;;;;;8.98;0.75;;;11.00;99.90;;;;;;5027002;28;20034;-77
2021/05/19 05:40:33;;;;;;;4.00;0.50;;;10.80;99.90;;;;;;5026491;28;20030;-77
2021/05/19 05:42:59;;;;;;;0.73;0.20;;;10.70;99.90;;;;;;5026401;28;20029;-77
2021/05/19 05:45:26;;;;;;;3.35;0.38;;;10.80;99.90;;;;;;5025754;28;20880;-77
2021/05/19 05:47:52;;;;;;;0.75;0.50;;;10.90;99.90;;;;;;5023696;28;20522;-77
2021/05/19 05:50:18;;;;;;;3.25;0.40;;;11.10;99.90;;;;;;5026834;28;20037;-77
2021/05/19 05:52:43;;;;;;;1.73;0.60;;;11.20;99.90;;;;;;5026165;28;20387;-77
2021/05/19 05:55:09;;;;;;;2.78;0.90;;;11.20;99.90;;;;;;5026242;28;20105;-77
2021/05/19 05:57:35;;;;;;;2.45;0.60;;;11.30;99.90;;;;;;5023613;28;20395;-77
2021/05/19 06:00:03;;;;;;;3.55;0.80;;;11.30;99.90;;;;;;5022149;28;20109;-77
2021/05/19 06:02:29;;;;;;;2.38;0.47;;;11.30;99.90;;;;;;5015646;28;20046;-77
2021/05/19 06:04:54;;;;;;;3.45;0.90;;;11.40;99.90;;;;;;5022909;28;20025;-77
2021/05/19 06:07:20;;;;;;;1.98;0.68;;;11.40;99.90;;;;;;5023680;28;20087;-77
2021/05/19 06:09:51;;;;;;;1.83;0.60;;;11.50;99.90;;;;;;5024467;28;20084;-78
2021/05/19 06:12:17;;;;;;;1.45;0.60;;;11.50;99.90;;;;;;5023169;28;20025;-76
2021/05/19 06:14:42;;;;;;;2.10;0.50;;;11.70;99.90;;;;;;5023011;28;20057;-76
2021/05/19 06:17:10;;;;;;;0.20;0.20;;;11.70;99.90;;;;;;5024720;28;20447;-76
2021/05/19 06:19:36;;;;;;;1.13;0.35;;;11.90;99.90;;;;;;5024634;28;20542;-76
2021/05/19 06:22:02;;;;;;;0.98;0.32;;;11.90;99.90;;;;;;5025995;28;20026;-76
2021/05/19 06:24:27;;;;;;;1.33;0.35;;;12.00;99.90;;;;;;5007026;28;20037;-76
2021/05/19 06:26:53;;;;;;;0.63;0.30;;;12.10;99.90;;;;;;5024597;28;20021;-76
2021/05/19 06:29:19;;;;;;;0.43;0.25;;;12.10;99.90;;;;;;5025087;28;20034;-76
2021/05/19 06:31:45;;;;;;;0.65;0.30;;;12.10;99.90;;;;;;5018498;28;20980;-76
2021/05/19 06:34:10;;;;;;;7.55;0.50;;;12.20;99.90;;;;;;5020859;28;20097;-76
2021/05/19 06:36:39;;;;;;;2.25;0.35;;;12.30;99.90;;;;;;5023467;28;20116;-76
2021/05/19 06:39:05;;;;;;;1.58;0.45;;;12.40;99.90;;;;;;5025192;28;20112;-77
2021/05/19 06:41:31;;;;;;;0.88;0.30;;;12.40;99.90;;;;;;5025712;28;20017;-76
2021/05/19 06:43:56;;;;;;;1.17;0.40;;;12.60;99.90;;;;;;5024768;28;20030;-76
2021/05/19 06:46:23;;;;;;;0.70;0.40;;;12.70;99.90;;;;;;5024918;28;20162;-77
2021/05/19 06:48:49;;;;;;;1.23;0.63;;;12.90;99.90;;;;;;5026217;28;20151;-76
2021/05/19 06:51:14;;;;;;;0.30;0.20;;;13.00;99.90;;;;;;5025328;28;20546;-76
2021/05/19 06:53:40;;;;;;;2.13;0.77;;;13.40;99.90;;;;;;5024698;28;20036;-76
2021/05/19 06:56:07;;;;;;;1.83;0.68;;;13.70;99.90;;;;;;5024884;28;20029;-76
2021/05/19 06:58:32;;;;;;;3.65;0.73;;;13.90;99.90;;;;;;5025365;28;20038;-76
2021/05/19 07:00:58;;;;;;;1.48;0.50;;;14.00;99.90;;;;;;5024900;28;20033;-77
2021/05/19 07:03:24;;;;;;;1.45;0.43;;;14.20;99.90;;;;;;5025295;28;20026;-77
2021/05/19 07:05:49;;;;;;;1.75;0.80;;;14.60;99.90;;;;;;5016551;28;20130;-76
2021/05/19 07:08:15;;;;;;;1.27;0.38;;;14.70;99.20;;;;;;5023166;28;20030;-77
2021/05/19 07:10:41;;;;;;;2.47;0.40;;;14.80;98.00;;;;;;5025176;28;20049;-77
2021/05/19 07:13:07;;;;;;;1.42;0.40;;;14.90;97.20;;;;;;5024559;28;20104;-76
2021/05/19 07:15:37;;;;;;;1.60;0.35;;;14.90;97.90;;;;;;5025297;28;20053;-76
2021/05/19 07:18:07;;;;;;;0.63;0.20;;;15.30;97.50;;;;;;5022211;28;20041;-77
2021/05/19 07:20:34;;;;;;;1.55;0.45;;;15.70;98.00;;;;;;5024434;28;20018;-77
2021/05/19 07:23:00;;;;;;;2.35;0.30;;;16.70;96.20;;;;;;5024294;28;20033;-77
2021/05/19 07:25:26;;;;;;;0.75;0.32;;;17.50;94.40;;;;;;5025235;28;20018;-77
2021/05/19 07:27:52;;;;;;;0.30;0.22;;;18.50;92.60;;;;;;5024148;28;20109;-78
2021/05/19 07:30:19;;;;;;;1.63;0.85;;;19.60;91.10;;;;;;5023926;28;20028;-77
2021/05/19 07:32:45;;;;;;;1.23;0.50;;;20.40;90.10;;;;;;5023298;28;20014;-77
2021/05/19 07:35:12;;;;;;;3.00;0.65;;;20.60;86.90;;;;;;5022426;28;20030;-77
2021/05/19 07:37:38;;;;;;;0.75;0.30;;;20.30;85.10;;;;;;5023414;28;20167;-77
2021/05/19 07:40:04;;;;;;;2.42;0.30;;;20.90;83.40;;;;;;5022643;28;20547;-76
2021/05/19 07:42:30;;;;;;;18.10;1.35;;;21.10;80.90;;;;;;5024224;28;20509;-77
2021/05/19 07:44:57;;;;;;;0.43;0.25;;;21.90;82.30;;;;;;5024355;28;20028;-77
2021/05/19 07:47:22;;;;;;;1.08;0.32;;;22.20;81.70;;;;;;5023762;28;20411;-77
2021/05/19 07:49:48;;;;;;;0.82;0.20;;;22.00;82.90;;;;;;5021755;28;20028;-77
2021/05/19 07:52:14;;;;;;;0.63;0.30;;;21.90;81.60;;;;;;5023035;28;20122;-77
2021/05/19 07:54:40;;;;;;;0.98;0.55;;;21.00;81.80;;;;;;5023420;28;20033;-77
2021/05/19 07:57:17;;;;;;;3.80;0.60;;;20.50;82.10;;;;;;5024710;28;20042;-77
2021/05/19 07:59:46;;;;;;;2.47;0.70;;;20.60;84.00;;;;;;5023691;28;20076;-77
2021/05/19 08:02:13;;;;;;;1.75;0.50;;;20.00;89.40;;;;;;5014429;28;20068;-78
2021/05/19 08:04:39;;;;;;;3.15;0.80;;;19.80;90.30;;;;;;5007438;28;20025;-77
2021/05/19 08:07:06;;;;;;;2.17;0.60;;;19.30;90.10;;;;;;5020144;28;20026;-77
2021/05/19 08:09:32;;;;;;;2.72;0.88;;;19.30;90.40;;;;;;5022911;28;20030;-77
2021/05/19 08:11:58;;;;;;;1.83;0.30;;;18.80;88.50;;;;;;5021812;28;20033;-77
2021/05/19 08:14:30;;;;;;;2.00;0.55;;;18.60;89.90;;;;;;5022794;28;20523;-77
2021/05/19 08:16:57;;;;;;;3.60;0.50;;;17.50;91.80;;;;;;5020549;28;20464;-77
2021/05/19 08:19:23;;;;;;;2.33;0.60;;;16.80;92.40;;;;;;5022619;28;20059;-77
2021/05/19 08:21:49;;;;;;;2.63;0.40;;;17.00;92.40;;;;;;5023817;28;20036;-76
2021/05/19 08:24:15;;;;;;;2.35;0.90;;;17.30;92.10;;;;;;5019980;28;20029;-77
2021/05/19 08:26:41;;;;;;;1.60;0.50;;;16.70;92.40;;;;;;5021165;28;20046;-77
2021/05/19 08:29:07;;;;;;;0.32;0.17;;;17.20;92.60;;;;;;5022432;28;20037;-77
2021/05/19 08:31:33;;;;;;;2.83;0.50;;;17.70;93.40;;;;;;5021643;28;20029;-77
2021/05/19 08:33:59;;;;;;;0.80;0.40;;;17.90;92.80;;;;;;5020903;28;20036;-77
2021/05/19 08:36:25;;;;;;;4.43;0.70;;;17.00;91.80;;;;;;5022216;28;20025;-77
2021/05/19 08:38:53;;;;;;;3.17;0.60;;;17.40;91.70;;;;;;5024086;28;20077;-77
2021/05/19 08:41:19;;;;;;;1.63;0.63;;;17.30;93.00;;;;;;5023773;28;20026;-77
2021/05/19 08:43:45;;;;;;;3.28;0.57;;;17.60;92.70;;;;;;5022546;28;20034;-77
2021/05/19 08:46:12;;;;;;;1.05;0.30;;;17.60;93.60;;;;;;5024508;28;20028;-77
2021/05/19 08:48:39;;;;;;;1.92;0.32;;;17.70;92.80;;;;;;5020271;28;20029;-77
2021/05/19 08:51:06;;;;;;;3.67;0.57;;;17.60;92.50;;;;;;5003941;28;20018;-77
2021/05/19 08:53:33;;;;;;;1.13;0.50;;;17.80;93.80;;;;;;5012549;28;20037;-77
2021/05/19 08:56:06;;;;;;;0.55;0.20;;;17.80;92.20;;;;;;5021301;28;20364;-77
2021/05/19 08:58:32;;;;;;;3.15;0.50;;;18.30;91.40;;;;;;5021260;28;20740;-78
2021/05/19 09:00:57;;;;;;;0.85;0.30;;;18.50;90.30;;;;;;5021157;28;20027;-77
2021/05/19 09:03:23;;;;;;;3.40;0.60;;;18.60;90.30;;;;;;5021414;28;20037;-77
2021/05/19 09:05:49;;;;;;;1.50;0.30;;;18.80;90.90;;;;;;5019467;28;20029;-77
2021/05/19 09:08:20;;;;;;;1.05;0.20;;;18.90;89.00;;;;;;5020930;28;20064;-78
2021/05/19 09:11:00;;;;;;;2.30;0.40;;;19.10;90.20;;;;;;5024392;28;20030;-77
2021/05/19 09:13:33;;;;;;;2.08;0.30;;;19.00;88.30;;;;;;5022944;28;20048;-77
2021/05/19 09:16:00;;;;;;;1.40;0.35;;;18.40;88.90;;;;;;5023799;28;20029;-77
2021/05/19 09:18:45;;;;;;;1.20;0.38;;;18.60;90.40;;;;;;5020868;28;20036;-77
2021/05/19 09:21:29;;;;;;;0.75;0.28;;;18.90;91.60;;;;;;5023451;28;20496;-78
2021/05/19 09:23:55;;;;;;;0.95;0.40;;;19.10;90.80;;;;;;5022487;28;20109;-77
2021/05/19 09:26:21;;;;;;;2.60;0.40;;;19.10;90.30;;;;;;5023801;28;20515;-77
2021/05/19 09:28:46;;;;;;;3.22;0.68;;;19.20;90.40;;;;;;5021533;28;20446;-76
2021/05/19 09:31:23;;;;;;;1.42;0.38;;;18.60;87.70;;;;;;5016017;28;20026;-78
2021/05/19 09:33:51;;;;;;;1.55;0.20;;;18.90;89.60;;;;;;5020271;28;20026;-78
2021/05/19 09:36:21;;;;;;;1.30;0.60;;;19.00;86.50;;;;;;5020983;28;20013;-78
2021/05/19 09:38:51;;;;;;;0.65;0.15;;;18.90;86.20;;;;;;5023912;28;20061;-78
2021/05/19 09:41:17;;;;;;;2.25;0.30;;;19.20;87.70;;;;;;5021755;28;20026;-78
2021/05/19 09:43:43;;;;;;;1.20;0.47;;;19.10;86.30;;;;;;5024433;28;20039;-78
2021/05/19 09:46:18;;;;;;;1.00;0.15;;;19.30;87.00;;;;;;5026680;28;20112;-78
2021/05/19 09:48:45;;;;;;;1.35;0.43;;;19.80;87.10;;;;;;5027090;28;20400;-79
2021/05/19 09:51:24;;;;;;;1.90;0.30;;;20.00;89.00;;;;;;5025265;28;20030;-78
2021/05/19 09:53:50;;;;;;;2.15;0.30;;;20.00;87.90;;;;;;5024586;28;20476;-78
2021/05/19 09:56:16;;;;;;;2.15;0.30;;;20.30;89.60;;;;;;5026042;28;20099;-78
2021/05/19 09:58:42;;;;;;;0.77;0.30;;;20.30;88.20;;;;;;5025903;28;20041;-79
2021/05/19 10:01:09;;;;;;;0.43;0.22;;;20.50;86.20;;;;;;5026157;28;20022;-78
2021/05/19 10:03:36;;;;;;;2.35;0.43;;;20.50;85.80;;;;;;5023649;28;20029;-79
2021/05/19 10:08:33;;;;;;;2.72;0.40;;;20.10;87.80;;;;;;5024419;28;20673;-79
2021/05/19 10:11:01;;;;;;;2.03;0.60;;;20.10;87.90;;;;;;5024962;28;20041;-78
2021/05/19 10:13:30;;;;;;;1.85;0.40;;;19.90;84.90;;;;;;5025752;28;20128;-78
2021/05/19 10:16:03;;;;;;;1.40;0.43;;;20.10;87.80;;;;;;5024865;28;20029;-78
2021/05/19 10:18:37;;;;;;;0.60;0.10;;;20.10;82.90;;;;;;5026137;28;20041;-78
2021/05/19 10:21:04;;;;;;;2.65;0.30;;;20.00;81.30;;;;;;5025588;28;20404;-78
2021/05/19 10:23:41;;;;;;;3.10;0.63;;;20.00;80.50;;;;;;5025692;28;20029;-79
2021/05/19 10:26:11;;;;;;;1.63;0.30;;;19.70;79.20;;;;;;5024917;28;20047;-78
2021/05/19 10:28:47;;;;;;;0.32;0.17;;;19.60;79.70;;;;;;5024287;28;20583;-78
2021/05/19 10:31:31;;;;;;;1.08;0.47;;;19.80;83.00;;;;;;5026690;28;20021;-78
2021/05/19 10:34:01;;;;;;;1.90;0.60;;;19.80;83.20;;;;;;5022355;28;20426;-79
2021/05/19 10:36:38;;;;;;;2.33;0.30;;;19.40;82.50;;;;;;5022849;28;20693;-78
2021/05/19 10:39:10;;;;;;;2.58;0.40;;;19.30;80.50;;;;;;5022571;28;20125;-78
2021/05/19 10:41:47;;;;;;;1.42;0.30;;;19.30;83.30;;;;;;5026026;28;20034;-79
2021/05/19 10:44:20;;;;;;;1.92;0.20;;;19.20;79.10;;;;;;5025330;28;20112;-78
2021/05/19 10:47:02;;;;;;;1.85;0.40;;;19.20;81.10;;;;;;5026238;28;20091;-78
2021/05/19 10:50:17;;;;;;;3.55;0.50;;;19.10;80.80;;;;;;5022399;28;20021;-80
2021/05/19 10:58:46;;;;;;;2.38;0.30;;;19.80;80.70;;;;;;5023547;28;20107;-77
2021/05/19 11:01:12;;;;;;;0.13;0.05;;;20.00;79.70;;;;;;5022505;28;20499;-77
2021/05/19 11:04:02;;;;;;;0.82;0.20;;;20.30;81.10;;;;;;5022803;28;20056;-76
2021/05/19 11:06:27;;;;;;;0.52;0.10;;;20.40;77.40;;;;;;5025637;28;20029;-85
2021/05/19 11:09:27;;;;;;;0.20;0.20;;;20.50;78.90;;;;;;5021754;28;20029;-87
2021/05/19 11:12:16;;;;;;;0.30;0.10;;;20.40;76.80;;;;;;5027300;28;20022;-88
2021/05/19 11:14:56;;;;;;;1.00;0.30;;;19.90;76.40;;;;;;5023650;28;20412;-86
2021/05/19 11:20:08;;;;;;;1.48;0.52;;;19.50;81.20;;;;;;5027508;28;20025;-86
2021/05/19 11:22:34;;;;;;;1.52;0.50;;;19.30;83.50;;;;;;5021915;28;20105;-86
2021/05/19 11:25:02;;;;;;;1.58;0.43;;;19.40;84.00;;;;;;5016432;28;20025;-88
2021/05/19 11:27:30;;;;;;;0.85;0.30;;;19.50;83.90;;;;;;5025633;28;20026;-88
2021/05/19 11:29:57;;;;;;;0.98;0.30;;;19.40;82.60;;;;;;5025355;28;20034;-87
2021/05/19 11:32:25;;;;;;;0.82;0.30;;;19.50;84.30;;;;;;5025237;28;20515;-87
2021/05/19 11:34:51;;;;;;;2.00;0.70;;;19.50;82.60;;;;;;5026231;28;20029;-87
2021/05/19 11:37:19;;;;;;;0.25;0.10;;;19.50;81.90;;;;;;5023346;28;20038;-87
2021/05/19 11:39:50;;;;;;;0.75;0.10;;;19.40;81.80;;;;;;5024373;28;20064;-87
2021/05/19 11:42:23;;;;;;;0.65;0.10;;;19.50;81.40;;;;;;5025245;28;20029;-87
2021/05/19 11:44:53;;;;;;;1.37;0.63;;;19.50;82.10;;;;;;5006575;28;20083;-87
2021/05/19 11:47:31;;;;;;;0.43;0.10;;;19.70;79.90;;;;;;5016798;28;20703;-88
2021/05/19 11:50:16;;;;;;;1.85;0.40;;;19.90;83.10;;;;;;5015029;28;20030;-87
2021/05/19 11:52:54;;;;;;;0.20;0.10;;;20.20;81.10;;;;;;5010162;28;20503;-87
2021/05/19 11:55:45;;;;;;;0.40;0.20;;;20.30;81.60;;;;;;5026289;28;20079;-87
2021/05/19 11:58:17;;;;;;;0.85;0.30;;;20.10;77.30;;;;;;5023268;28;20132;-87
2021/05/19 12:00:44;;;;;;;0.32;0.10;;;19.90;78.40;;;;;;5025784;28;20057;-87
2021/05/19 12:03:12;;;;;;;1.80;0.55;;;20.10;78.30;;;;;;5026524;28;20102;-88
2021/05/19 12:05:50;;;;;;;0.80;0.22;;;19.90;75.80;;;;;;5024524;28;20021;-88
2021/05/19 12:08:18;;;;;;;1.40;0.30;;;19.60;79.70;;;;;;5015708;28;20435;-88
2021/05/19 12:10:44;;;;;;;1.50;0.15;;;19.70;79.50;;;;;;5026269;28;20025;-88
2021/05/19 12:13:11;;;;;;;2.50;0.50;;;19.70;79.20;;;;;;5024711;28;20029;-88
2021/05/19 12:15:38;;;;;;;2.15;0.30;;;19.50;77.10;;;;;;5026610;28;20024;-88
2021/05/19 12:18:05;;;;;;;1.70;0.50;;;19.40;83.60;;;;;;5024906;28;20052;-87
2021/05/19 12:20:34;;;;;;;0.38;0.15;;;19.60;80.70;;;;;;5025266;28;20033;-87
2021/05/19 12:23:03;;;;;;;1.50;0.70;;;20.20;81.50;;;;;;5025478;28;20128;-87
2021/05/19 12:25:30;;;;;;;2.65;0.55;;;20.40;77.70;;;;;;5026556;28;20041;-87
2021/05/19 12:28:08;;;;;;;0.47;0.22;;;20.20;76.30;;;;;;5025141;28;20025;-87
2021/05/19 12:30:48;;;;;;;1.13;0.22;;;20.00;76.30;;;;;;5021894;28;20018;-87
2021/05/19 12:33:16;;;;;;;2.22;0.30;;;20.50;78.60;;;;;;5026559;28;20029;-87
2021/05/19 12:35:47;;;;;;;0.10;0.05;;;20.40;76.20;;;;;;5024964;28;20032;-88
2021/05/19 12:38:16;;;;;;;0.75;0.20;;;20.50;72.50;;;;;;5019427;28;20108;-84
2021/05/19 12:40:45;;;;;;;0.90;0.28;;;20.80;73.00;;;;;;5024838;28;20480;-87
2021/05/19 12:43:25;;;;;;;0.63;0.20;;;20.50;76.80;;;;;;5026375;28;20033;-87
2021/05/19 12:45:52;;;;;;;1.48;0.52;;;20.00;73.80;;;;;;5025006;28;20032;-88
2021/05/19 12:48:21;;;;;;;2.20;0.60;;;19.80;77.70;;;;;;5024411;28;20034;-88
2021/05/19 12:50:58;;;;;;;1.88;0.10;;;20.40;75.50;;;;;;5020674;28;20026;-88
2021/05/19 12:53:32;;;;;;;1.17;0.30;;;20.60;77.50;;;;;;5007945;28;20562;-87
2021/05/19 12:56:11;;;;;;;1.98;1.00;;;20.80;78.10;;;;;;5024716;28;20034;-87
2021/05/19 12:58:50;;;;;;;1.75;0.38;;;21.30;77.50;;;;;;5023163;28;20056;-88
2021/05/19 13:01:16;;;;;;;0.52;0.20;;;21.20;77.80;;;;;;5023093;28;20490;-87
2021/05/19 13:03:42;;;;;;;0.63;0.20;;;21.00;77.20;;;;;;5011816;28;20045;-87
2021/05/19 13:06:09;;;;;;;1.00;0.25;;;20.60;75.10;;;;;;5022972;28;20033;-87